createdAt,value
2022-11-18T00:01:30.516Z,12.00
2022-11-18T00:03:58.806Z,12.00
2022-11-18T00:06:29.026Z,12.00
2022-11-18T00:08:59.280Z,12.00
2022-11-18T00:11:46.778Z,12.00
2022-11-18T00:14:20.712Z,12.10
2022-11-18T00:16:51.445Z,12.10
2022-11-18T00:19:20.671Z,12.20
2022-11-18T00:21:48.953Z,12.10
2022-11-18T00:24:17.264Z,12.20
2022-11-18T00:26:47.055Z,12.20
2022-11-18T00:29:15.962Z,12.20
2022-11-18T00:31:45.018Z,12.30
2022-11-18T00:34:14.888Z,12.30
2022-11-18T00:36:44.355Z,12.30
2022-11-18T00:39:13.496Z,12.30
2022-11-18T00:41:59.593Z,12.30
2022-11-18T00:44:29.421Z,12.30
2022-11-18T00:46:57.626Z,12.30
2022-11-18T00:49:26.076Z,12.30
2022-11-18T00:51:54.299Z,12.30
2022-11-18T00:54:23.008Z,12.30
2022-11-18T00:56:51.272Z,12.30
2022-11-18T00:59:20.066Z,12.30
2022-11-18T01:01:50.223Z,12.20
2022-11-18T01:04:18.635Z,12.20
2022-11-18T01:06:46.881Z,12.30
2022-11-18T01:09:16.140Z,12.30
2022-11-18T01:12:01.784Z,12.30
2022-11-18T01:14:30.037Z,12.30
2022-11-18T01:16:59.936Z,12.30
2022-11-18T01:19:28.458Z,12.30
2022-11-18T01:22:03.314Z,12.30
2022-11-18T01:24:32.043Z,12.20
2022-11-18T01:27:00.780Z,12.20
2022-11-18T01:29:29.202Z,12.20
2022-11-18T01:34:47.161Z,12.20
2022-11-18T01:37:15.419Z,12.20
2022-11-18T01:39:43.711Z,12.20
2022-11-18T01:42:16.129Z,12.20
2022-11-18T01:45:09.844Z,12.20
2022-11-18T01:47:43.389Z,12.20
2022-11-18T01:50:16.616Z,12.20
2022-11-18T01:52:51.306Z,12.30
2022-11-18T01:55:24.968Z,12.30
2022-11-18T01:57:58.701Z,12.30
2022-11-18T02:00:27.052Z,12.30
2022-11-18T02:02:55.619Z,12.30
2022-11-18T02:05:26.276Z,12.30
2022-11-18T02:07:54.496Z,12.30
2022-11-18T02:10:25.112Z,12.30
2022-11-18T02:12:54.485Z,12.30
2022-11-18T02:15:31.367Z,12.30
2022-11-18T02:18:09.139Z,12.40
2022-11-18T02:20:42.878Z,12.40
2022-11-18T02:23:58.763Z,12.40
2022-11-18T02:27:13.550Z,12.40
2022-11-18T02:29:46.880Z,12.40
2022-11-18T02:32:17.922Z,12.50
2022-11-18T02:34:51.411Z,12.50
2022-11-18T02:37:24.772Z,12.50
2022-11-18T02:39:56.220Z,12.50
2022-11-18T02:42:26.137Z,12.60
2022-11-18T02:45:01.340Z,12.60
2022-11-18T02:47:32.859Z,12.60
2022-11-18T02:50:05.544Z,12.60
2022-11-18T02:52:36.066Z,12.70
2022-11-18T02:55:08.203Z,12.70
2022-11-18T02:57:37.481Z,12.70
2022-11-18T03:00:08.518Z,12.70
2022-11-18T03:02:42.847Z,12.70
2022-11-18T03:05:17.261Z,12.70
2022-11-18T03:07:47.426Z,12.70
2022-11-18T03:10:15.818Z,12.70
2022-11-18T03:12:47.948Z,12.70
2022-11-18T03:15:27.422Z,12.80
2022-11-18T03:18:01.731Z,12.80
2022-11-18T03:20:34.709Z,12.70
2022-11-18T03:23:09.346Z,12.80
2022-11-18T03:25:43.776Z,12.80
2022-11-18T03:28:19.783Z,12.80
2022-11-18T03:30:55.527Z,12.80
2022-11-18T03:33:29.933Z,12.90
2022-11-18T03:35:58.787Z,12.90
2022-11-18T03:38:31.251Z,12.80
2022-11-18T03:41:02.888Z,12.90
2022-11-18T03:43:35.846Z,12.90
2022-11-18T03:46:09.802Z,12.80
2022-11-18T03:48:43.347Z,12.90
2022-11-18T03:51:16.175Z,12.80
2022-11-18T03:53:47.048Z,12.90
2022-11-18T03:56:18.696Z,12.90
2022-11-18T03:58:53.587Z,12.90
2022-11-18T04:01:30.301Z,12.90
2022-11-18T04:03:58.731Z,12.90
2022-11-18T04:06:34.171Z,12.90
2022-11-18T04:09:08.363Z,12.90
2022-11-18T04:12:00.149Z,12.90
2022-11-18T04:14:28.603Z,12.90
2022-11-18T04:16:58.424Z,12.90
2022-11-18T04:19:26.740Z,12.90
2022-11-18T04:21:55.001Z,12.90
2022-11-18T04:24:23.275Z,12.90
2022-11-18T04:26:51.623Z,12.90
2022-11-18T04:29:20.220Z,12.90
2022-11-18T04:31:48.860Z,12.90
2022-11-18T04:34:18.624Z,12.90
2022-11-18T04:36:47.403Z,12.90
2022-11-18T04:39:15.980Z,12.90
2022-11-18T04:41:59.578Z,12.80
2022-11-18T04:44:29.382Z,12.90
2022-11-18T04:46:59.566Z,12.90
2022-11-18T04:49:30.098Z,12.80
2022-11-18T04:51:58.410Z,12.80
2022-11-18T04:54:28.066Z,12.80
2022-11-18T04:56:56.927Z,12.80
2022-11-18T04:59:27.192Z,12.80
2022-11-18T05:01:56.469Z,12.70
2022-11-18T05:04:26.318Z,12.70
2022-11-18T05:06:55.999Z,12.70
2022-11-18T05:09:30.268Z,12.70
2022-11-18T05:12:17.303Z,12.70
2022-11-18T05:14:50.014Z,12.70
2022-11-18T05:17:19.363Z,12.70
2022-11-18T05:19:47.724Z,12.60
2022-11-18T05:22:17.706Z,12.60
2022-11-18T05:24:46.238Z,12.60
2022-11-18T05:27:14.928Z,12.60
2022-11-18T05:29:43.238Z,12.60
2022-11-18T05:32:11.590Z,12.50
2022-11-18T05:34:40.836Z,12.50
2022-11-18T05:37:09.107Z,12.50
2022-11-18T05:39:38.712Z,12.50
2022-11-18T05:42:24.680Z,12.50
2022-11-18T05:44:57.833Z,12.50
2022-11-18T05:47:26.974Z,12.50
2022-11-18T05:49:55.263Z,12.50
2022-11-18T05:52:23.495Z,12.50
2022-11-18T05:54:53.488Z,12.50
2022-11-18T05:57:21.739Z,12.50
2022-11-18T05:59:50.138Z,12.40
2022-11-18T06:02:21.880Z,12.40
2022-11-18T06:04:54.619Z,12.40
2022-11-18T06:07:26.604Z,12.40
2022-11-18T06:10:05.089Z,12.40
2022-11-18T06:12:38.271Z,12.30
2022-11-18T06:15:10.861Z,12.30
2022-11-18T06:17:44.742Z,12.30
2022-11-18T06:20:13.437Z,12.30
2022-11-18T06:22:46.324Z,12.30
2022-11-18T06:25:16.528Z,12.30
2022-11-18T06:27:45.359Z,12.20
2022-11-18T06:30:14.963Z,12.20
2022-11-18T06:32:43.416Z,12.20
2022-11-18T06:35:12.081Z,12.10
2022-11-18T06:37:40.334Z,12.10
2022-11-18T06:40:10.073Z,12.10
2022-11-18T06:42:57.074Z,12.10
2022-11-18T06:45:25.482Z,12.00
2022-11-18T06:47:56.579Z,12.00
2022-11-18T06:50:24.862Z,12.00
2022-11-18T06:52:53.259Z,12.00
2022-11-18T06:55:21.748Z,12.00
2022-11-18T06:57:51.412Z,12.00
2022-11-18T07:00:20.317Z,12.00
2022-11-18T07:02:48.554Z,12.00
2022-11-18T07:05:16.960Z,12.00
2022-11-18T07:07:45.341Z,12.00
2022-11-18T07:10:13.673Z,12.10
2022-11-18T07:12:41.863Z,12.10
2022-11-18T07:15:12.398Z,12.10
2022-11-18T07:17:40.646Z,12.20
2022-11-18T07:20:10.176Z,12.20
2022-11-18T07:22:38.475Z,12.20
2022-11-18T07:25:07.335Z,12.20
2022-11-18T07:27:35.599Z,12.30
2022-11-18T07:30:04.054Z,12.30
2022-11-18T07:32:34.298Z,12.30
2022-11-18T07:35:02.609Z,12.30
2022-11-18T07:37:30.875Z,12.30
2022-11-18T07:40:00.194Z,12.30
2022-11-18T07:42:28.574Z,12.30
2022-11-18T07:44:56.943Z,12.30
2022-11-18T07:47:25.174Z,12.40
2022-11-18T07:49:54.815Z,12.40
2022-11-18T07:52:23.546Z,12.40
2022-11-18T07:54:51.898Z,12.40
2022-11-18T07:57:20.815Z,12.40
2022-11-18T07:59:49.040Z,12.40
2022-11-18T08:02:17.381Z,12.50
2022-11-18T08:04:45.683Z,12.50
2022-11-18T08:07:16.830Z,12.50
2022-11-18T08:09:45.087Z,12.60
2022-11-18T08:12:13.608Z,12.60
2022-11-18T08:14:41.819Z,12.70
2022-11-18T08:17:11.635Z,12.70
2022-11-18T08:19:39.980Z,12.70
2022-11-18T08:22:13.153Z,12.70
2022-11-18T08:24:42.784Z,12.80
2022-11-18T08:27:11.254Z,12.80
2022-11-18T08:29:39.544Z,12.80
2022-11-18T08:32:08.491Z,12.80
2022-11-18T08:34:36.929Z,12.90
2022-11-18T08:37:05.219Z,12.80
2022-11-18T08:39:33.475Z,12.80
2022-11-18T08:42:03.054Z,12.90
2022-11-18T08:44:33.648Z,12.90
2022-11-18T08:47:02.069Z,12.90
2022-11-18T08:49:32.559Z,12.90
2022-11-18T08:52:00.981Z,13.00
2022-11-18T08:54:29.261Z,13.00
2022-11-18T08:56:57.595Z,12.90
2022-11-18T08:59:27.534Z,13.00
2022-11-18T09:01:55.863Z,13.00
2022-11-18T09:04:24.186Z,13.00
2022-11-18T09:06:52.686Z,13.00
2022-11-18T09:09:21.464Z,13.10
2022-11-18T09:11:49.913Z,13.10
2022-11-18T09:15:12.269Z,13.10
2022-11-18T09:17:08.504Z,13.10
2022-11-18T09:19:52.096Z,13.10
2022-11-18T09:22:20.148Z,13.10
2022-11-18T09:24:48.430Z,13.10
2022-11-18T09:27:18.064Z,13.10
2022-11-18T09:29:46.738Z,13.10
2022-11-18T09:32:16.723Z,13.20
2022-11-18T09:34:44.981Z,13.20
2022-11-18T09:37:13.287Z,13.20
2022-11-18T09:39:41.614Z,13.20
2022-11-18T09:42:33.350Z,13.30
2022-11-18T09:45:14.045Z,13.30
2022-11-18T09:47:45.158Z,13.40
2022-11-18T09:53:15.289Z,13.60
2022-11-18T09:55:44.119Z,13.70
2022-11-18T09:58:19.459Z,13.80
2022-11-18T10:00:47.804Z,13.90
2022-11-18T10:03:24.854Z,14.00
2022-11-18T10:05:59.361Z,14.10
2022-11-18T10:08:31.648Z,14.10
2022-11-18T10:11:07.768Z,14.20
2022-11-18T10:13:50.138Z,14.30
2022-11-18T10:16:37.363Z,14.30
2022-11-18T10:19:26.833Z,14.30
2022-11-18T10:22:04.184Z,14.40
2022-11-18T10:24:38.735Z,14.40
2022-11-18T10:27:11.947Z,14.40
2022-11-18T10:29:40.318Z,14.40
2022-11-18T10:32:12.257Z,14.40
2022-11-18T10:34:50.810Z,14.50
2022-11-18T10:37:45.417Z,14.50
2022-11-18T10:40:26.745Z,14.60
2022-11-18T10:42:55.587Z,14.70
2022-11-18T10:45:28.177Z,14.80
2022-11-18T10:48:02.014Z,15.10
2022-11-18T10:50:34.572Z,15.40
2022-11-18T10:53:03.558Z,15.70
2022-11-18T10:55:32.500Z,16.10
2022-11-18T10:58:04.521Z,16.40
2022-11-18T11:00:45.020Z,16.50
2022-11-18T11:03:28.930Z,16.60
2022-11-18T11:06:37.685Z,16.70
2022-11-18T11:09:09.070Z,16.60
2022-11-18T11:11:40.241Z,16.60
2022-11-18T11:14:20.636Z,16.50
2022-11-18T11:16:57.751Z,16.40
2022-11-18T11:19:32.169Z,16.40
2022-11-18T11:22:02.003Z,16.30
2022-11-18T11:24:30.507Z,16.20
2022-11-18T11:30:14.227Z,16.10
2022-11-18T11:33:10.231Z,16.10
2022-11-18T11:35:48.459Z,16.00
2022-11-18T11:38:30.669Z,16.00
2022-11-18T11:41:07.074Z,15.90
2022-11-18T11:43:50.776Z,15.90
2022-11-18T11:46:30.464Z,15.80
2022-11-18T11:49:06.245Z,15.70
2022-11-18T11:51:40.443Z,15.70
2022-11-18T11:54:27.221Z,15.60
2022-11-18T11:57:00.124Z,15.60
2022-11-18T11:59:38.906Z,15.60
2022-11-18T12:02:45.808Z,15.50
2022-11-18T12:05:23.333Z,15.40
2022-11-18T12:07:55.257Z,15.40
2022-11-18T12:10:34.465Z,15.30
2022-11-18T12:13:31.014Z,15.30
2022-11-18T12:16:07.874Z,15.30
2022-11-18T12:18:42.668Z,15.30
2022-11-18T12:21:49.568Z,15.30
2022-11-18T12:24:32.181Z,15.30
2022-11-18T12:27:03.151Z,15.30
2022-11-18T12:29:39.757Z,15.40
2022-11-18T12:32:42.979Z,15.40
2022-11-18T12:35:28.236Z,15.30
2022-11-18T12:38:03.353Z,15.30
2022-11-18T12:40:52.946Z,15.20
2022-11-18T12:44:05.950Z,15.10
2022-11-18T12:46:53.712Z,15.10
2022-11-18T12:50:14.166Z,15.00
2022-11-18T12:52:53.898Z,14.90
2022-11-18T12:55:39.812Z,14.80
2022-11-18T12:58:24.192Z,14.80
2022-11-18T13:01:06.527Z,14.70
2022-11-18T13:03:36.325Z,14.60
2022-11-18T13:06:14.207Z,14.50
2022-11-18T13:08:43.190Z,14.40
2022-11-18T13:11:34.794Z,14.30
2022-11-18T13:14:23.314Z,14.20
2022-11-18T13:17:09.164Z,14.10
2022-11-18T13:19:38.843Z,14.00
2022-11-18T13:22:35.779Z,14.00
2022-11-18T13:25:04.430Z,13.90
2022-11-18T13:27:44.194Z,13.90
2022-11-18T13:30:14.679Z,13.80
2022-11-18T13:32:45.967Z,13.80
2022-11-18T13:35:19.397Z,13.80
2022-11-18T13:37:53.076Z,13.80
2022-11-18T13:40:25.188Z,13.80
2022-11-18T13:42:53.638Z,13.80
2022-11-18T13:45:23.964Z,13.80
2022-11-18T13:47:54.932Z,13.80
2022-11-18T13:50:29.108Z,13.80
2022-11-18T13:53:08.855Z,13.80
2022-11-18T13:55:40.300Z,13.80
2022-11-18T13:58:25.358Z,13.80
2022-11-18T14:00:57.753Z,13.80
2022-11-18T14:03:29.447Z,13.80
2022-11-18T14:06:00.005Z,13.80
2022-11-18T14:08:30.506Z,13.80
2022-11-18T14:10:59.563Z,13.70
2022-11-18T14:13:31.839Z,13.70
2022-11-18T14:16:02.362Z,13.80
2022-11-18T14:18:33.672Z,13.80
2022-11-18T14:21:05.397Z,13.90
2022-11-18T14:23:35.957Z,14.00
2022-11-18T14:26:06.557Z,14.00
2022-11-18T14:28:37.126Z,14.20
2022-11-18T14:31:23.059Z,14.30
2022-11-18T14:34:06.688Z,14.40
2022-11-18T14:36:36.213Z,14.50
2022-11-18T14:39:29.786Z,14.50
2022-11-18T14:41:59.015Z,14.60
2022-11-18T14:44:31.287Z,14.60
2022-11-18T14:47:02.672Z,14.60
2022-11-18T14:49:32.939Z,14.70
2022-11-18T14:52:04.764Z,14.70
2022-11-18T14:54:33.532Z,14.70
2022-11-18T14:57:04.085Z,14.70
2022-11-18T14:59:32.572Z,14.70
2022-11-18T15:02:01.070Z,14.60
2022-11-18T15:04:30.683Z,14.60
2022-11-18T15:06:59.075Z,14.50
2022-11-18T15:09:31.399Z,14.50
2022-11-18T15:12:03.682Z,14.40
2022-11-18T15:14:31.868Z,14.30
2022-11-18T15:17:00.024Z,14.20
2022-11-18T15:19:28.287Z,14.10
2022-11-18T15:21:56.542Z,14.00
2022-11-18T15:24:25.081Z,14.00
2022-11-18T15:26:54.750Z,13.90
2022-11-18T15:29:25.156Z,13.90
2022-11-18T15:31:53.880Z,13.80
2022-11-18T15:34:24.241Z,13.70
2022-11-18T15:36:52.573Z,13.60
2022-11-18T15:39:20.844Z,13.50
2022-11-18T15:41:49.121Z,13.50
2022-11-18T15:44:19.186Z,13.30
2022-11-18T15:46:48.125Z,13.20
2022-11-18T15:49:17.975Z,13.10
2022-11-18T15:51:46.591Z,13.00
2022-11-18T15:54:14.858Z,12.90
2022-11-18T15:56:43.129Z,12.80
2022-11-18T15:59:13.108Z,12.80
2022-11-18T16:01:44.416Z,12.70
2022-11-18T16:04:14.579Z,12.60
2022-11-18T16:06:44.364Z,12.50
2022-11-18T16:09:13.342Z,12.40
2022-11-18T16:11:59.145Z,12.30
2022-11-18T16:14:27.829Z,12.20
2022-11-18T16:16:57.855Z,12.10
2022-11-18T16:19:31.340Z,12.00
2022-11-18T16:21:59.581Z,11.90
2022-11-18T16:24:29.385Z,11.80
2022-11-18T16:26:58.489Z,11.70
2022-11-18T16:29:26.729Z,11.60
2022-11-18T16:31:55.487Z,11.60
2022-11-18T16:34:25.066Z,11.60
2022-11-18T16:36:55.251Z,11.50
2022-11-18T16:39:25.132Z,11.50
2022-11-18T16:41:55.133Z,11.50
2022-11-18T16:44:23.813Z,11.40
2022-11-18T16:46:53.171Z,11.40
2022-11-18T16:49:24.784Z,11.40
2022-11-18T16:51:54.857Z,11.40
2022-11-18T16:54:25.181Z,11.30
2022-11-18T16:56:55.261Z,11.30
2022-11-18T16:59:25.015Z,11.30
2022-11-18T17:01:54.872Z,11.30
2022-11-18T17:04:25.643Z,11.20
2022-11-18T17:06:54.900Z,11.30
2022-11-18T17:09:25.186Z,11.30
2022-11-18T17:11:55.104Z,11.20
2022-11-18T17:14:23.995Z,11.30
2022-11-18T17:16:53.543Z,11.40
2022-11-18T17:19:24.845Z,11.40
2022-11-18T17:21:53.513Z,11.40
2022-11-18T17:24:24.299Z,11.40
2022-11-18T17:26:53.717Z,11.50
2022-11-18T17:29:22.218Z,11.40
2022-11-18T17:31:50.851Z,11.40
2022-11-18T17:34:19.404Z,11.40
2022-11-18T17:36:49.383Z,11.30
2022-11-18T17:39:21.533Z,11.30
2022-11-18T17:42:07.064Z,11.30
2022-11-18T17:44:35.521Z,11.20
2022-11-18T17:47:03.994Z,11.20
2022-11-18T17:49:32.253Z,11.20
2022-11-18T17:52:02.532Z,11.10
2022-11-18T17:54:30.749Z,11.10
2022-11-18T17:56:59.236Z,11.10
2022-11-18T17:59:27.515Z,11.00
2022-11-18T18:01:59.243Z,11.00
2022-11-18T18:04:27.948Z,11.00
2022-11-18T18:06:56.320Z,10.90
2022-11-18T18:09:30.567Z,10.90
2022-11-18T18:12:00.621Z,10.90
2022-11-18T18:14:28.180Z,10.80
2022-11-18T18:16:56.808Z,10.80
2022-11-18T18:19:25.409Z,10.80
2022-11-18T18:21:54.294Z,10.80
2022-11-18T18:24:23.097Z,10.80
2022-11-18T18:26:53.167Z,10.80
2022-11-18T18:29:21.459Z,10.70
2022-11-18T18:31:49.681Z,10.70
2022-11-18T18:34:18.522Z,10.60
2022-11-18T18:36:46.936Z,10.60
2022-11-18T18:39:15.186Z,10.50
2022-11-18T18:41:43.407Z,10.50
2022-11-18T18:44:18.296Z,10.50
2022-11-18T18:46:45.942Z,10.50
2022-11-18T18:49:15.832Z,10.50
2022-11-18T18:51:48.951Z,10.50
2022-11-18T18:54:19.389Z,10.50
2022-11-18T18:56:48.031Z,10.50
2022-11-18T18:59:17.711Z,10.50
2022-11-18T19:01:46.014Z,10.60
2022-11-18T19:04:16.543Z,10.60
2022-11-18T19:06:59.995Z,10.60
2022-11-18T19:09:28.377Z,10.60
2022-11-18T19:12:14.294Z,10.70
2022-11-18T19:14:44.013Z,10.70
2022-11-18T19:17:13.241Z,10.80
2022-11-18T19:20:00.352Z,10.80
2022-11-18T19:22:31.430Z,10.80
2022-11-18T19:25:01.179Z,10.80
2022-11-18T19:27:30.318Z,10.80
2022-11-18T19:30:00.771Z,10.80
2022-11-18T19:32:28.982Z,10.80
2022-11-18T19:34:57.207Z,10.80
2022-11-18T19:37:25.807Z,10.80
2022-11-18T19:39:54.026Z,10.80
2022-11-18T19:42:22.264Z,10.80
2022-11-18T19:44:50.493Z,10.80
2022-11-18T19:47:20.338Z,10.80
2022-11-18T19:49:48.557Z,10.80
2022-11-18T19:52:17.082Z,10.70
2022-11-18T19:54:51.347Z,10.70
2022-11-18T19:57:19.679Z,10.60
2022-11-18T19:59:47.920Z,10.50
2022-11-18T20:02:16.333Z,10.50
2022-11-18T20:05:05.921Z,10.50
2022-11-18T20:07:34.726Z,10.40
2022-11-18T20:10:03.031Z,10.30
2022-11-18T20:12:31.337Z,10.20
2022-11-18T20:14:59.545Z,10.10
2022-11-18T20:17:27.876Z,9.90
2022-11-18T20:19:57.747Z,9.80
2022-11-18T20:22:26.504Z,9.60
2022-11-18T20:24:54.951Z,9.50
2022-11-18T20:27:23.193Z,9.30
2022-11-18T20:29:51.693Z,9.20
2022-11-18T20:32:20.135Z,9.10
2022-11-18T20:34:48.424Z,8.90
2022-11-18T20:37:18.941Z,8.80
2022-11-18T20:39:47.162Z,8.70
2022-11-18T20:42:33.067Z,8.70
2022-11-18T20:45:01.309Z,8.60
2022-11-18T20:47:29.730Z,8.50
2022-11-18T20:49:59.297Z,8.50
2022-11-18T20:52:28.920Z,8.40
2022-11-18T20:55:01.290Z,8.30
2022-11-18T20:57:32.479Z,8.30
2022-11-18T21:00:00.729Z,8.20
2022-11-18T21:02:28.947Z,8.10
2022-11-18T21:04:57.236Z,8.10
2022-11-18T21:07:25.598Z,8.00
2022-11-18T21:09:55.317Z,7.90
2022-11-18T21:12:23.540Z,7.90
2022-11-18T21:14:50.733Z,7.80
2022-11-18T21:17:19.120Z,7.80
2022-11-18T21:19:48.596Z,7.80
2022-11-18T21:22:15.975Z,7.80
2022-11-18T21:24:44.445Z,7.80
2022-11-18T21:27:15.480Z,7.80
2022-11-18T21:29:46.357Z,7.70
2022-11-18T21:32:14.564Z,7.70
2022-11-18T21:34:42.750Z,7.60
2022-11-18T21:37:11.185Z,7.60
2022-11-18T21:39:39.675Z,7.60
2022-11-18T21:42:08.565Z,7.50
2022-11-18T21:44:38.144Z,7.50
2022-11-18T21:47:06.425Z,7.40
2022-11-18T21:49:34.638Z,7.40
2022-11-18T21:52:02.925Z,7.40
2022-11-18T21:54:32.352Z,7.50
2022-11-18T21:57:00.982Z,7.60
2022-11-18T21:59:29.398Z,7.60
2022-11-18T22:01:59.061Z,7.70
2022-11-18T22:04:44.620Z,7.80
2022-11-18T22:07:12.995Z,7.80
2022-11-18T22:09:41.307Z,7.70
2022-11-18T22:12:09.841Z,7.60
2022-11-18T22:14:38.161Z,7.50
2022-11-18T22:17:07.860Z,7.40
2022-11-18T22:19:36.204Z,7.20
2022-11-18T22:22:04.487Z,7.10
2022-11-18T22:24:32.710Z,7.00
2022-11-18T22:27:00.995Z,6.90
2022-11-18T22:29:29.255Z,6.80
2022-11-18T22:31:57.652Z,6.70
2022-11-18T22:34:28.592Z,6.70
2022-11-18T22:36:56.962Z,6.60
2022-11-18T22:39:25.180Z,6.60
2022-11-18T22:42:10.942Z,6.50
2022-11-18T22:44:39.221Z,6.40
2022-11-18T22:47:07.661Z,6.40
2022-11-18T22:49:37.702Z,6.30
2022-11-18T22:52:06.469Z,6.30
2022-11-18T22:54:39.622Z,6.20
2022-11-18T22:57:08.882Z,6.20
2022-11-18T22:59:37.306Z,6.20
2022-11-18T23:02:05.645Z,6.20
2022-11-18T23:04:33.834Z,6.20
2022-11-18T23:07:03.620Z,6.20
2022-11-18T23:09:31.972Z,6.20
2022-11-18T23:12:17.830Z,6.10
2022-11-18T23:14:46.194Z,6.20
2022-11-18T23:17:15.896Z,6.20
2022-11-18T23:19:44.348Z,6.10
2022-11-18T23:22:14.433Z,6.20
2022-11-18T23:24:42.816Z,6.20
2022-11-18T23:27:11.100Z,6.20
2022-11-18T23:29:39.357Z,6.20
2022-11-18T23:32:07.600Z,6.20
2022-11-18T23:34:35.896Z,6.10
2022-11-18T23:37:04.266Z,6.10
2022-11-18T23:39:34.681Z,6.10
2022-11-18T23:42:02.908Z,6.00
2022-11-18T23:44:52.717Z,6.00
2022-11-18T23:47:21.228Z,6.00
2022-11-18T23:49:49.416Z,5.90
2022-11-18T23:52:17.883Z,5.80
2022-11-18T23:54:49.822Z,5.70
2022-11-18T23:57:18.057Z,5.70
2022-11-18T23:59:46.324Z,5.60
